Rodanthe, North Carolina
Current Conditions -  °F | °C
As of 10:56 AM on Friday 24 Oct 2014 (Local Time) from K2DP Reporting Station
Clear Clear  
Wind Chill: 61°   Ceiling: Unl
Heat Index: 61°   Visibility: 10mi
Dew Point: 47°   Wind: 13mph
Humidity: 60%   Direction: 320°NW
Pressure: 30.01"   Gusts: 17mph
Location:  35.59°N, 75.47°W
Report Text: K2DP 241456Z AUTO 32011G15KT 10SM CLR 16/08 A3001 RMK AO2 SLPNO T01590081 51006
Loading
Personal Weather Stations






























Interactive Weather Map
Tropical Storm Tracking
New forecast layout! Learn more

10-Day Weather Forecast

Advertisements
Track Severe Weather on mobile